^^
Station Historical Data
Daily Summary for October 14, 2017 Units:  Metric    English   Both
« Previous Day
Next Day »
Daily Weekly Monthly Yearly Custom
  High: Low: Average:
Temperature: 15.8 °C 11.5 °C 13.5 °C
Dew Point: 15.2 °C 9.8 °C 12.7 °C
Humidity: 100 % 88 % 95 %
Wind Speed: 3.2 km/h 0 km/h 0.2 km/h
Wind Gust: 16.1 km/h - -
Wind:- - West
Pressure: 1021.6 hPa 1018.8 hPa -
Precipitation: 0 mm    
Historical Graphs
 
 
Tabular Data for October 14, 2017
Time Temperature Dew Point Pressure Wind Wind Speed Wind Gust Humidity Rainfall Rate (Hourly) solar Conditions
00:04 11.8 °C 9.9 °C 1021.2 hPa Calm     88 % 0 mm WeatherDisplay:10.37 W/m2 OVC
00:09 11.8 °C 9.9 °C 1021.2 hPa Calm     88 % 0 mm WeatherDisplay:10.37 W/m2 OVC
00:14 11.8 °C 9.9 °C 1021.2 hPa Calm     88 % 0 mm WeatherDisplay:10.37 W/m2 OVC
00:19 11.8 °C 9.9 °C 1021.2 hPa Calm     88 % 0 mm WeatherDisplay:10.37 W/m2 OVC
00:24 11.8 °C 9.9 °C 1021.2 hPa Calm     88 % 0 mm WeatherDisplay:10.37 W/m2 OVC
00:34 11.8 °C 9.8 °C 1021.2 hPa Calm     88 % 0 mm WeatherDisplay:10.37 W/m2 OVC
00:39 11.8 °C 9.8 °C 1021.2 hPa Calm     88 % 0 mm WeatherDisplay:10.37 W/m2 OVC
00:44 11.8 °C 9.8 °C 1021.2 hPa Calm     88 % 0 mm WeatherDisplay:10.37 W/m2 OVC
00:49 11.8 °C 9.8 °C 1021.2 hPa Calm     88 % 0 mm WeatherDisplay:10.37 W/m2 OVC
00:54 11.8 °C 9.8 °C 1021.2 hPa Calm     88 % 0 mm WeatherDisplay:10.37 W/m2 OVC
00:59 11.8 °C 10 °C 1021.2 hPa Calm     89 % 0 mm WeatherDisplay:10.37 W/m2 OVC
01:09 11.8 °C 10 °C 1021.2 hPa Calm     89 % 0 mm WeatherDisplay:10.37 W/m2 OVC
01:14 11.8 °C 10 °C 1021.2 hPa Calm     89 % 0 mm WeatherDisplay:10.37 W/m2 -RA
01:19 11.7 °C 9.9 °C 1020.9 hPa Calm     89 % 0 mm WeatherDisplay:10.37 W/m2 -RA
01:29 11.7 °C 9.9 °C 1020.9 hPa Calm     89 % 0 mm WeatherDisplay:10.37 W/m2 -RA
01:34 11.7 °C 9.9 °C 1020.9 hPa Calm     89 % 0 mm WeatherDisplay:10.37 W/m2 -RA
01:39 11.6 °C 9.9 °C 1020.9 hPa Calm     89 % 0 mm WeatherDisplay:10.37 W/m2 -RA
01:44 11.6 °C 9.8 °C 1020.5 hPa Calm     89 % 0 mm WeatherDisplay:10.37 W/m2 -RA
01:49 11.6 °C 9.8 °C 1020.9 hPa Calm     89 % 0 mm WeatherDisplay:10.37 W/m2 -RA
01:54 11.6 °C 10 °C 1020.9 hPa Calm     90 % 0 mm WeatherDisplay:10.37 W/m2 -RA
01:59 11.6 °C 9.9 °C 1020.9 hPa Calm     90 % 0 mm WeatherDisplay:10.37 W/m2 -RA
02:04 11.6 °C 9.9 °C 1020.9 hPa Calm     90 % 0 mm WeatherDisplay:10.37 W/m2 -RA
02:09 11.5 °C 9.9 °C 1020.9 hPa Calm     90 % 0 mm WeatherDisplay:10.37 W/m2 -RA
02:14 11.5 °C 9.9 °C 1020.9 hPa Calm     90 % 0 mm WeatherDisplay:10.37 W/m2 -RA
02:19 11.5 °C 9.9 °C 1020.9 hPa Calm     90 % 0 mm WeatherDisplay:10.37 W/m2 -RA
02:24 11.5 °C 9.9 °C 1020.9 hPa Calm     90 % 0 mm WeatherDisplay:10.37 W/m2 -RA
02:29 11.5 °C 9.9 °C 1020.9 hPa Calm     90 % 0 mm WeatherDisplay:10.37 W/m2 -RA
02:39 11.5 °C 10.1 °C 1020.9 hPa Calm     91 % 0 mm WeatherDisplay:10.37 W/m2 -RA
02:49 11.5 °C 10.1 °C 1020.9 hPa Calm     91 % 0 mm WeatherDisplay:10.37 W/m2 -RA
02:54 11.5 °C 10.1 °C 1020.5 hPa Calm     91 % 0 mm WeatherDisplay:10.37 W/m2 -RA
02:59 11.5 °C 10.1 °C 1020.5 hPa Calm     91 % 0 mm WeatherDisplay:10.37 W/m2 -RA
03:04 11.5 °C 10.1 °C 1020.5 hPa Calm     91 % 0 mm WeatherDisplay:10.37 W/m2 -RA
03:09 11.5 °C 10.1 °C 1020.5 hPa Calm     91 % 0.25 mm WeatherDisplay:10.37 W/m2 -RA
03:19 11.5 °C 10.2 °C 1020.5 hPa Calm     92 % 0 mm WeatherDisplay:10.37 W/m2 -RA
03:24 11.6 °C 10.3 °C 1020.5 hPa Calm     92 % 0 mm WeatherDisplay:10.37 W/m2 -RA
03:34 11.6 °C 10.3 °C 1020.5 hPa Calm     92 % 0.51 mm WeatherDisplay:10.37 W/m2 -RA
03:39 11.6 °C 10.6 °C 1020.5 hPa Calm   1.6 km/h 93 % 0 mm WeatherDisplay:10.37 W/m2 -RA
03:44 11.7 °C 10.6 °C 1020.5 hPa Calm   4.8 km/h 93 % 0 mm WeatherDisplay:10.37 W/m2 -RA
03:49 11.7 °C 10.6 °C 1020.5 hPa Calm     93 % 0.25 mm WeatherDisplay:10.37 W/m2 -RA
03:54 11.7 °C 10.6 °C 1020.5 hPa Calm   1.6 km/h 93 % 0.25 mm WeatherDisplay:10.37 W/m2 -RA
03:59 11.8 °C 10.7 °C 1020.5 hPa Calm   1.6 km/h 93 % 0 mm WeatherDisplay:10.37 W/m2 -RA
04:04 11.8 °C 10.7 °C 1020.5 hPa Calm   3.2 km/h 93 % 0 mm WeatherDisplay:10.37 W/m2 -RA
04:09 11.8 °C 10.9 °C 1020.5 hPa West 1.6 km/h 4.8 km/h 94 % 0 mm WeatherDisplay:10.37 W/m2 -RA
04:14 11.8 °C 10.9 °C 1020.5 hPa Calm   1.6 km/h 94 % 0 mm WeatherDisplay:10.37 W/m2 -RA
04:19 11.9 °C 10.9 °C 1020.5 hPa Calm     94 % 0 mm WeatherDisplay:10.37 W/m2 -RA
04:24 11.9 °C 10.9 °C 1020.5 hPa Calm   1.6 km/h 94 % 0 mm WeatherDisplay:10.37 W/m2 -RA
04:29 11.9 °C 11 °C 1020.5 hPa Calm   6.4 km/h 94 % 0 mm WeatherDisplay:10.37 W/m2 -RA
04:34 12 °C 11.1 °C 1020.9 hPa Calm   4.8 km/h 94 % 0 mm WeatherDisplay:10.37 W/m2 -RA
04:39 12.1 °C 11.3 °C 1020.9 hPa West 3.2 km/h 8 km/h 95 % 0 mm WeatherDisplay:10.37 W/m2 -RA
04:44 12.2 °C 11.4 °C 1020.5 hPa Calm   3.2 km/h 95 % 0 mm WeatherDisplay:10.37 W/m2 -RA
04:49 12.2 °C 11.4 °C 1020.5 hPa Calm   4.8 km/h 95 % 0 mm WeatherDisplay:10.37 W/m2 BKN
04:54 12.2 °C 11.4 °C 1020.5 hPa Calm   4.8 km/h 95 % 0 mm WeatherDisplay:10.37 W/m2 BKN
05:04 12.3 °C 11.5 °C 1020.5 hPa Calm   6.4 km/h 95 % 0 mm WeatherDisplay:10.37 W/m2 BKN
05:09 12.3 °C 11.6 °C 1020.5 hPa Calm   4.8 km/h 95 % 0 mm WeatherDisplay:10.37 W/m2 BKN
05:14 12.3 °C 11.6 °C 1020.5 hPa Calm   8 km/h 95 % 0 mm WeatherDisplay:10.37 W/m2 BKN
05:19 12.4 °C 11.6 °C 1020.5 hPa WNW 1.6 km/h 8 km/h 95 % 0 mm WeatherDisplay:10.37 W/m2 BKN
05:24 12.4 °C 11.6 °C 1020.5 hPa Calm   6.4 km/h 95 % 0 mm WeatherDisplay:10.37 W/m2 BKN
05:39 12.4 °C 11.7 °C 1020.5 hPa Calm   3.2 km/h 95 % 0 mm WeatherDisplay:10.37 W/m2 BKN
05:44 12.4 °C 11.7 °C 1020.5 hPa Calm   3.2 km/h 95 % 0 mm WeatherDisplay:10.37 W/m2 BKN
05:54 12.4 °C 11.7 °C 1020.5 hPa Calm   4.8 km/h 95 % 0 mm WeatherDisplay:10.37 W/m2 BKN
05:59 12.4 °C 11.6 °C 1020.5 hPa Calm   1.6 km/h 95 % 0 mm WeatherDisplay:10.37 W/m2 BKN
06:04 12.4 °C 11.6 °C 1020.5 hPa Calm     95 % 0 mm WeatherDisplay:10.37 W/m2 BKN
06:09 12.4 °C 11.6 °C 1020.5 hPa Calm   6.4 km/h 95 % 0 mm WeatherDisplay:10.37 W/m2 BKN
06:14 12.4 °C 11.7 °C 1020.5 hPa Calm   4.8 km/h 95 % 0 mm WeatherDisplay:10.37 W/m2 BKN
06:19 12.4 °C 11.7 °C 1020.5 hPa Calm   4.8 km/h 95 % 0 mm WeatherDisplay:10.37 W/m2 BKN
06:24 12.4 °C 11.7 °C 1020.5 hPa Calm   4.8 km/h 95 % 0 mm WeatherDisplay:10.37 W/m2 BKN
06:34 12.5 °C 11.7 °C 1020.2 hPa Calm   1.6 km/h 95 % 0 mm WeatherDisplay:10.37 W/m2 BKN
06:39 12.5 °C 11.9 °C 1020.2 hPa Calm   1.6 km/h 96 % 0 mm WeatherDisplay:10.37 W/m2 BKN
06:44 12.5 °C 11.9 °C 1020.5 hPa Calm   3.2 km/h 96 % 0 mm WeatherDisplay:10.37 W/m2 BKN
06:49 12.5 °C 11.9 °C 1020.2 hPa Calm   1.6 km/h 96 % 0 mm WeatherDisplay:10.37 W/m2 BKN
06:54 12.5 °C 11.9 °C 1020.2 hPa Calm   3.2 km/h 96 % 0 mm WeatherDisplay:10.37 W/m2 BKN
06:59 12.6 °C 11.9 °C 1020.5 hPa Calm   3.2 km/h 96 % 0 mm WeatherDisplay:10.37 W/m2 BKN
07:04 12.6 °C 11.9 °C 1020.5 hPa Calm   1.6 km/h 96 % 0 mm WeatherDisplay:10.37 W/m2 BKN
07:09 12.6 °C 11.9 °C 1020.5 hPa Calm   4.8 km/h 96 % 0 mm WeatherDisplay:10.37 W/m2 BKN
07:14 12.6 °C 12 °C 1020.5 hPa Calm   1.6 km/h 96 % 0 mm WeatherDisplay:10.37 W/m2 OVC
07:19 12.6 °C 12 °C 1020.5 hPa Calm   3.2 km/h 96 % 0 mm WeatherDisplay:10.37 W/m2 OVC
07:24 12.6 °C 12 °C 1020.9 hPa Calm   3.2 km/h 96 % 0 mm WeatherDisplay:10.37 W/m2 OVC
07:29 12.6 °C 12 °C 1020.9 hPa Calm   6.4 km/h 96 % 0 mm WeatherDisplay:10.37 W/m2 OVC
07:34 12.7 °C 12 °C 1020.5 hPa Calm     96 % 0 mm WeatherDisplay:10.37 W/m2 OVC
07:39 12.7 °C 12.1 °C 1020.5 hPa Calm   6.4 km/h 96 % 0 mm WeatherDisplay:10.37 W/m2 OVC
07:44 12.7 °C 12.1 °C 1020.5 hPa Calm   3.2 km/h 96 % 0 mm WeatherDisplay:10.37 W/m2 OVC
07:49 12.7 °C 12.1 °C 1020.5 hPa Calm   3.2 km/h 96 % 0 mm WeatherDisplay:10.37 W/m2 OVC
07:59 12.7 °C 12.1 °C 1020.5 hPa Calm   4.8 km/h 96 % 0 mm WeatherDisplay:10.37 W/m2 OVC
08:04 12.7 °C 12.1 °C 1020.5 hPa Calm     96 % 0 mm WeatherDisplay:10.37 W/m2 OVC
08:09 12.8 °C 12.2 °C 1020.5 hPa Calm   4.8 km/h 96 % 0 mm WeatherDisplay:10.37 W/m2 OVC
08:14 12.8 °C 12.2 °C 1020.9 hPa Calm     96 % 0 mm WeatherDisplay:10.37 W/m2 OVC
08:19 12.8 °C 12.2 °C 1020.9 hPa WSW 1.6 km/h 6.4 km/h 96 % 0 mm WeatherDisplay:10.37 W/m2 OVC
08:24 12.9 °C 12.3 °C 1020.9 hPa Calm   4.8 km/h 96 % 0 mm WeatherDisplay:10.37 W/m2 OVC
08:29 12.9 °C 12.3 °C 1020.9 hPa Calm   6.4 km/h 96 % 0 mm WeatherDisplay:10.37 W/m2 OVC
08:39 12.9 °C 12.3 °C 1020.9 hPa Calm   4.8 km/h 96 % 0 mm WeatherDisplay:10.37 W/m2 OVC
08:44 12.9 °C 12.3 °C 1021.2 hPa Calm   3.2 km/h 96 % 0 mm WeatherDisplay:10.37 W/m2 OVC
08:49 13 °C 12.4 °C 1021.2 hPa Calm   4.8 km/h 96 % 0 mm WeatherDisplay:10.37 W/m2 OVC
08:54 13 °C 12.4 °C 1021.2 hPa Calm   3.2 km/h 96 % 0 mm WeatherDisplay:10.37 W/m2 OVC
08:59 13 °C 12.4 °C 1021.2 hPa Calm   1.6 km/h 96 % 0 mm WeatherDisplay:10.37 W/m2 OVC
09:04 13.1 °C 12.4 °C 1021.2 hPa Calm   1.6 km/h 96 % 0 mm WeatherDisplay:10.37 W/m2 OVC
09:09 13.1 °C 12.5 °C 1021.2 hPa Calm     96 % 0 mm WeatherDisplay:10.37 W/m2 OVC
09:14 13.1 °C 12.5 °C 1021.6 hPa Calm     96 % 0 mm WeatherDisplay:10.37 W/m2 OVC
09:19 13.2 °C 12.6 °C 1021.2 hPa Calm   3.2 km/h 96 % 0 mm WeatherDisplay:10.37 W/m2 OVC
09:29 13.2 °C 12.6 °C 1021.2 hPa Calm   4.8 km/h 96 % 0 mm WeatherDisplay:10.37 W/m2 OVC
09:34 13.2 °C 12.6 °C 1021.2 hPa Calm   3.2 km/h 96 % 0 mm WeatherDisplay:10.37 W/m2 OVC
09:39 13.3 °C 12.7 °C 1021.2 hPa Calm   4.8 km/h 96 % 0 mm WeatherDisplay:10.37 W/m2 OVC
09:49 13.4 °C 12.9 °C 1021.6 hPa Calm   8 km/h 97 % 0 mm WeatherDisplay:10.37 W/m2 OVC
09:54 13.4 °C 13.4 °C 1021.2 hPa Calm   4.8 km/h 100 % 0 mm WeatherDisplay:10.37 W/m2 OVC
09:59 13.4 °C 13.4 °C 1021.2 hPa West 3.2 km/h 9.7 km/h 100 % 0 mm WeatherDisplay:10.37 W/m2 OVC
10:04 13.4 °C 13.4 °C 1021.2 hPa Calm   4.8 km/h 100 % 0 mm WeatherDisplay:10.37 W/m2 OVC
10:09 13.5 °C 13.5 °C 1021.2 hPa Calm   3.2 km/h 100 % 0 mm WeatherDisplay:10.37 W/m2 OVC
10:14 13.6 °C 13.6 °C 1021.2 hPa WNW 1.6 km/h 8 km/h 100 % 0 mm WeatherDisplay:10.37 W/m2 OVC
10:19 13.6 °C 13.6 °C 1021.2 hPa West 1.6 km/h 9.7 km/h 100 % 0 mm WeatherDisplay:10.37 W/m2 OVC
10:24 13.7 °C 13.7 °C 1021.2 hPa Calm   4.8 km/h 100 % 0 mm WeatherDisplay:10.37 W/m2 OVC
10:29 13.7 °C 13.7 °C 1021.2 hPa Calm   1.6 km/h 100 % 0 mm WeatherDisplay:10.37 W/m2 OVC
10:39 13.8 °C 13.8 °C 1021.2 hPa Calm   3.2 km/h 100 % 0 mm WeatherDisplay:10.37 W/m2 OVC
10:49 13.9 °C 13.9 °C 1021.2 hPa WNW 1.6 km/h 8 km/h 100 % 0 mm WeatherDisplay:10.37 W/m2 OVC
10:54 13.9 °C 13.9 °C 1021.2 hPa West 1.6 km/h 8 km/h 100 % 0 mm WeatherDisplay:10.37 W/m2 OVC
10:59 14 °C 14 °C 1021.2 hPa West 1.6 km/h 8 km/h 100 % 0 mm WeatherDisplay:10.37 W/m2 OVC
11:04 14.1 °C 14.1 °C 1021.2 hPa WSW 1.6 km/h 8 km/h 100 % 0 mm WeatherDisplay:10.37 W/m2 OVC
11:09 14.1 °C 14.1 °C 1021.2 hPa West 1.6 km/h 11.3 km/h 100 % 0 mm WeatherDisplay:10.37 W/m2 OVC
11:14 14.1 °C 14.1 °C 1020.9 hPa WNW 1.6 km/h 11.3 km/h 100 % 0 mm WeatherDisplay:10.37 W/m2 OVC
11:19 14.2 °C 14.2 °C 1020.9 hPa WNW 1.6 km/h 8 km/h 100 % 0 mm WeatherDisplay:10.37 W/m2 OVC
11:24 14.2 °C 14.2 °C 1020.9 hPa Calm   3.2 km/h 100 % 0 mm WeatherDisplay:10.37 W/m2 OVC
11:29 14.3 °C 14.3 °C 1020.9 hPa Calm   6.4 km/h 100 % 0 mm WeatherDisplay:10.37 W/m2 OVC
11:39 14.4 °C 14.4 °C 1021.2 hPa WNW 1.6 km/h 12.9 km/h 100 % 0 mm WeatherDisplay:10.37 W/m2 OVC
11:49 14.4 °C 14.4 °C 1020.9 hPa Calm   8 km/h 100 % 0 mm WeatherDisplay:10.37 W/m2 OVC
11:54 14.4 °C 14.4 °C 1020.9 hPa WNW 3.2 km/h 9.7 km/h 100 % 0 mm WeatherDisplay:10.37 W/m2 OVC
11:59 14.5 °C 14.5 °C 1020.9 hPa Calm   8 km/h 100 % 0 mm WeatherDisplay:10.37 W/m2 OVC
12:04 14.6 °C 14.6 °C 1020.9 hPa West 1.6 km/h 9.7 km/h 100 % 0 mm WeatherDisplay:10.37 W/m2 OVC
12:14 14.7 °C 14.7 °C 1020.9 hPa WSW 1.6 km/h 8 km/h 100 % 0 mm WeatherDisplay:10.37 W/m2 OVC
12:19 14.7 °C 14.7 °C 1020.9 hPa West 1.6 km/h 4.8 km/h 100 % 0 mm WeatherDisplay:10.37 W/m2 OVC
12:24 14.7 °C 14.7 °C 1020.9 hPa Calm   1.6 km/h 100 % 0 mm WeatherDisplay:10.37 W/m2 OVC
12:29 14.8 °C 14.8 °C 1020.9 hPa Calm   6.4 km/h 100 % 0 mm WeatherDisplay:10.37 W/m2 OVC
12:34 14.8 °C 14.8 °C 1020.9 hPa Calm   6.4 km/h 100 % 0 mm WeatherDisplay:10.37 W/m2 OVC
12:39 14.9 °C 14.9 °C 1020.5 hPa Calm   6.4 km/h 100 % 0 mm WeatherDisplay:10.37 W/m2 OVC
12:44 14.9 °C 14.9 °C 1020.5 hPa West 3.2 km/h 12.9 km/h 100 % 0 mm WeatherDisplay:10.37 W/m2 OVC
12:49 15 °C 15 °C 1020.5 hPa West 1.6 km/h 11.3 km/h 100 % 0 mm WeatherDisplay:10.37 W/m2 OVC
12:54 15.1 °C 15.1 °C 1020.5 hPa Calm   8 km/h 100 % 0 mm WeatherDisplay:10.37 W/m2 OVC
12:59 15.2 °C 15.2 °C 1020.5 hPa WNW 1.6 km/h 9.7 km/h 100 % 0 mm WeatherDisplay:10.37 W/m2 OVC
13:04 15.2 °C 15.2 °C 1020.5 hPa West 3.2 km/h 9.7 km/h 100 % 0 mm WeatherDisplay:10.37 W/m2 OVC
13:09 15.2 °C 15.2 °C 1020.5 hPa Calm   9.7 km/h 100 % 0 mm WeatherDisplay:10.37 W/m2 OVC
13:14 15.2 °C 15.2 °C 1020.5 hPa Calm   8 km/h 100 % 0 mm WeatherDisplay:10.37 W/m2 OVC
13:19 15.2 °C 15.2 °C 1020.2 hPa West 1.6 km/h 16.1 km/h 100 % 0 mm WeatherDisplay:10.37 W/m2 OVC
13:24 15.2 °C 15.2 °C 1020.2 hPa WSW 1.6 km/h 8 km/h 100 % 0 mm WeatherDisplay:10.37 W/m2 OVC
13:29 15.3 °C 14.8 °C 1020.2 hPa Calm   4.8 km/h 97 % 0 mm WeatherDisplay:10.37 W/m2 OVC
13:34 15.3 °C 14.7 °C 1020.2 hPa Calm   9.7 km/h 96 % 0 mm WeatherDisplay:10.37 W/m2 OVC
13:39 15.3 °C 14.7 °C 1020.2 hPa Calm   4.8 km/h 96 % 0 mm WeatherDisplay:10.37 W/m2 OVC
13:44 15.3 °C 14.7 °C 1020.2 hPa Calm   8 km/h 96 % 0 mm WeatherDisplay:10.37 W/m2 OVC
13:49 15.3 °C 14.7 °C 1019.9 hPa Calm   3.2 km/h 96 % 0 mm WeatherDisplay:10.37 W/m2 OVC
13:54 15.3 °C 14.7 °C 1019.9 hPa West 1.6 km/h 6.4 km/h 96 % 0 mm WeatherDisplay:10.37 W/m2 OVC
13:59 15.4 °C 14.8 °C 1019.9 hPa Calm   3.2 km/h 96 % 0 mm WeatherDisplay:10.37 W/m2 OVC
14:04 15.4 °C 14.8 °C 1019.9 hPa West 1.6 km/h 6.4 km/h 96 % 0 mm WeatherDisplay:10.37 W/m2 OVC
14:09 15.4 °C 14.8 °C 1019.9 hPa Calm   1.6 km/h 96 % 0 mm WeatherDisplay:10.37 W/m2 OVC
14:14 15.5 °C 14.8 °C 1019.9 hPa Calm   6.4 km/h 96 % 0 mm WeatherDisplay:10.37 W/m2 OVC
14:19 15.5 °C 14.7 °C 1019.9 hPa Calm   1.6 km/h 95 % 0 mm WeatherDisplay:10.37 W/m2 OVC
14:24 15.6 °C 14.8 °C 1019.9 hPa Calm     95 % 0 mm WeatherDisplay:10.37 W/m2 OVC
14:29 15.6 °C 14.8 °C 1019.9 hPa Calm   1.6 km/h 95 % 0 mm WeatherDisplay:10.37 W/m2 OVC
14:34 15.6 °C 14.8 °C 1019.9 hPa Calm   1.6 km/h 95 % 0 mm WeatherDisplay:10.37 W/m2 OVC
14:39 15.6 °C 14.8 °C 1019.9 hPa Calm   8 km/h 95 % 0 mm WeatherDisplay:10.37 W/m2 OVC
14:44 15.6 °C 14.8 °C 1019.9 hPa Calm   4.8 km/h 95 % 0 mm WeatherDisplay:10.37 W/m2 OVC
14:49 15.6 °C 14.8 °C 1019.5 hPa Calm   4.8 km/h 95 % 0 mm WeatherDisplay:10.37 W/m2 OVC
14:54 15.6 °C 14.8 °C 1019.9 hPa WNW 1.6 km/h 6.4 km/h 95 % 0 mm WeatherDisplay:10.37 W/m2 OVC
14:59 15.6 °C 14.7 °C 1019.9 hPa Calm   6.4 km/h 94 % 0 mm WeatherDisplay:10.37 W/m2 OVC
15:04 15.6 °C 14.7 °C 1019.5 hPa Calm   1.6 km/h 94 % 0 mm WeatherDisplay:10.37 W/m2 OVC
15:09 15.6 °C 14.7 °C 1019.5 hPa Calm   1.6 km/h 94 % 0 mm WeatherDisplay:10.37 W/m2 OVC
15:14 15.6 °C 14.7 °C 1019.5 hPa Calm   3.2 km/h 94 % 0 mm WeatherDisplay:10.37 W/m2 OVC
15:19 15.7 °C 14.7 °C 1019.5 hPa Calm   3.2 km/h 94 % 0 mm WeatherDisplay:10.37 W/m2 OVC
15:24 15.7 °C 14.7 °C 1019.5 hPa Calm     94 % 0 mm WeatherDisplay:10.37 W/m2 OVC
15:29 15.6 °C 14.7 °C 1019.5 hPa Calm   4.8 km/h 94 % 0 mm WeatherDisplay:10.37 W/m2 OVC
15:34 15.6 °C 14.7 °C 1019.5 hPa Calm   1.6 km/h 94 % 0 mm WeatherDisplay:10.37 W/m2 OVC
15:39 15.6 °C 14.7 °C 1019.5 hPa Calm   4.8 km/h 94 % 0 mm WeatherDisplay:10.37 W/m2 OVC
15:44 15.7 °C 14.7 °C 1019.5 hPa Calm   4.8 km/h 94 % 0 mm WeatherDisplay:10.37 W/m2 OVC
15:49 15.7 °C 14.9 °C 1019.5 hPa Calm   3.2 km/h 95 % 0 mm WeatherDisplay:10.37 W/m2 OVC
15:54 15.7 °C 14.9 °C 1019.9 hPa Calm   6.4 km/h 95 % 0 mm WeatherDisplay:10.37 W/m2 OVC
15:59 15.8 °C 14.9 °C 1019.5 hPa Calm   4.8 km/h 95 % 0 mm WeatherDisplay:10.37 W/m2 OVC
16:04 15.8 °C 15 °C 1019.5 hPa West 1.6 km/h 8 km/h 95 % 0 mm WeatherDisplay:10.37 W/m2 OVC
16:09 15.8 °C 15 °C 1019.5 hPa Calm   8 km/h 95 % 0 mm WeatherDisplay:10.37 W/m2 OVC
16:14 15.8 °C 15 °C 1019.5 hPa Calm   3.2 km/h 95 % 0 mm WeatherDisplay:10.37 W/m2 OVC
16:19 15.8 °C 15 °C 1019.5 hPa Calm   3.2 km/h 95 % 0 mm WeatherDisplay:10.37 W/m2 OVC
16:24 15.8 °C 15 °C 1019.9 hPa Calm   3.2 km/h 95 % 0 mm WeatherDisplay:10.37 W/m2 OVC
16:29 15.8 °C 15 °C 1019.9 hPa Calm   3.2 km/h 95 % 0 mm WeatherDisplay:10.37 W/m2 OVC
16:34 15.8 °C 15 °C 1019.9 hPa Calm     95 % 0 mm WeatherDisplay:10.37 W/m2 OVC
16:39 15.8 °C 14.8 °C 1019.9 hPa Calm   4.8 km/h 94 % 0 mm WeatherDisplay:10.37 W/m2 OVC
16:44 15.8 °C 14.8 °C 1019.9 hPa Calm   1.6 km/h 94 % 0 mm WeatherDisplay:10.37 W/m2 OVC
16:49 15.8 °C 14.8 °C 1019.9 hPa Calm   3.2 km/h 94 % 0 mm WeatherDisplay:10.37 W/m2 OVC
16:54 15.8 °C 14.8 °C 1019.9 hPa Calm   3.2 km/h 94 % 0 mm WeatherDisplay:10.37 W/m2 OVC
16:59 15.7 °C 14.8 °C 1019.9 hPa Calm   4.8 km/h 94 % 0 mm WeatherDisplay:10.37 W/m2 OVC
17:04 15.7 °C 14.8 °C 1019.9 hPa Calm     94 % 0 mm WeatherDisplay:10.37 W/m2 OVC
17:09 15.7 °C 14.8 °C 1019.9 hPa Calm     94 % 0 mm WeatherDisplay:10.37 W/m2 OVC
17:14 15.7 °C 14.8 °C 1020.2 hPa Calm     94 % 0 mm WeatherDisplay:10.37 W/m2 OVC
17:19 15.7 °C 14.8 °C 1020.2 hPa Calm     94 % 0 mm WeatherDisplay:10.37 W/m2 OVC
17:24 15.7 °C 14.8 °C 1019.9 hPa Calm     94 % 0 mm WeatherDisplay:10.37 W/m2 OVC
17:29 15.7 °C 14.8 °C 1019.9 hPa Calm     94 % 0 mm WeatherDisplay:10.37 W/m2 OVC
17:39 15.7 °C 14.7 °C 1019.9 hPa Calm     94 % 0 mm WeatherDisplay:10.37 W/m2 OVC
17:44 15.7 °C 14.7 °C 1019.9 hPa Calm     94 % 0 mm WeatherDisplay:10.37 W/m2 OVC
17:49 15.7 °C 14.7 °C 1019.9 hPa Calm     94 % 0 mm WeatherDisplay:10.37 W/m2 OVC
17:54 15.7 °C 14.7 °C 1019.9 hPa Calm     94 % 0 mm WeatherDisplay:10.37 W/m2 OVC
17:59 15.6 °C 14.7 °C 1020.2 hPa Calm     94 % 0 mm WeatherDisplay:10.37 W/m2 OVC
18:04 15.6 °C 14.7 °C 1020.2 hPa Calm     94 % 0 mm WeatherDisplay:10.37 W/m2 OVC
18:09 15.6 °C 14.6 °C 1020.5 hPa Calm     94 % 0 mm WeatherDisplay:10.37 W/m2 OVC
18:14 15.5 °C 14.6 °C 1020.5 hPa Calm   4.8 km/h 94 % 0 mm WeatherDisplay:10.37 W/m2 OVC
18:24 15.4 °C 14.5 °C 1020.5 hPa Calm     94 % 0 mm WeatherDisplay:10.37 W/m2 OVC
18:29 15.4 °C 14.4 °C 1020.5 hPa Calm     94 % 0 mm WeatherDisplay:10.37 W/m2 OVC
18:34 15.3 °C 14.2 °C 1020.5 hPa Calm     93 % 0 mm WeatherDisplay:10.37 W/m2 OVC
18:39 15.3 °C 14.2 °C 1020.5 hPa Calm     93 % 0 mm WeatherDisplay:10.37 W/m2 OVC
18:44 15.2 °C 14.1 °C 1020.5 hPa Calm     93 % 0 mm WeatherDisplay:10.37 W/m2 OVC
18:49 15.2 °C 14.1 °C 1020.9 hPa Calm     93 % 0 mm WeatherDisplay:10.37 W/m2 OVC
18:54 15.1 °C 14 °C 1020.5 hPa Calm     93 % 0 mm WeatherDisplay:10.37 W/m2 OVC
18:59 15.1 °C 13.9 °C 1020.5 hPa Calm     93 % 0 mm WeatherDisplay:10.37 W/m2 OVC
19:04 14.9 °C 13.8 °C 1020.5 hPa Calm     93 % 0 mm WeatherDisplay:10.37 W/m2 OVC
19:09 14.8 °C 13.7 °C 1020.5 hPa Calm     93 % 0 mm WeatherDisplay:10.37 W/m2 OVC
19:14 14.8 °C 13.7 °C 1020.5 hPa Calm     93 % 0 mm WeatherDisplay:10.37 W/m2 OVC
19:19 14.7 °C 13.6 °C 1020.5 hPa Calm     93 % 0 mm WeatherDisplay:10.37 W/m2 OVC
19:24 14.6 °C 13.5 °C 1020.5 hPa Calm     93 % 0 mm WeatherDisplay:10.37 W/m2 OVC
19:29 14.6 °C 13.3 °C 1020.5 hPa Calm     92 % 0 mm WeatherDisplay:10.37 W/m2 OVC
19:34 14.4 °C 13.1 °C 1020.5 hPa Calm     92 % 0 mm WeatherDisplay:10.37 W/m2 OVC
19:39 14.3 °C 13 °C 1020.5 hPa Calm     92 % 0 mm WeatherDisplay:10.37 W/m2 OVC
19:44 14.2 °C 12.9 °C 1020.5 hPa Calm     92 % 0 mm WeatherDisplay:10.37 W/m2 OVC
19:54 14 °C 12.7 °C 1020.5 hPa Calm     92 % 0 mm WeatherDisplay:10.37 W/m2 OVC
19:59 13.9 °C 12.6 °C 1020.5 hPa Calm     92 % 0 mm WeatherDisplay:10.37 W/m2 OVC
20:04 13.8 °C 12.5 °C 1020.5 hPa Calm     92 % 0 mm WeatherDisplay:10.37 W/m2 OVC
20:09 13.7 °C 12.4 °C 1020.5 hPa Calm     92 % 0 mm WeatherDisplay:10.37 W/m2 OVC
20:14 13.6 °C 12.3 °C 1020.5 hPa Calm     92 % 0 mm WeatherDisplay:10.37 W/m2 OVC
20:19 13.4 °C 12.2 °C 1020.2 hPa Calm     92 % 0 mm WeatherDisplay:10.37 W/m2 OVC
20:24 13.3 °C 12.1 °C 1020.2 hPa Calm     92 % 0 mm WeatherDisplay:10.37 W/m2 OVC
20:29 13.2 °C 11.9 °C 1020.2 hPa Calm     92 % 0 mm WeatherDisplay:10.37 W/m2 OVC
20:34 13.1 °C 11.8 °C 1020.2 hPa Calm     92 % 0 mm WeatherDisplay:10.37 W/m2 OVC
20:39 13 °C 11.7 °C 1020.2 hPa Calm     92 % 0 mm WeatherDisplay:10.37 W/m2 OVC
20:44 12.9 °C 11.6 °C 1020.2 hPa Calm     92 % 0 mm WeatherDisplay:10.37 W/m2 OVC
20:49 12.8 °C 11.5 °C 1020.2 hPa Calm     92 % 0 mm WeatherDisplay:10.37 W/m2 OVC
20:54 12.7 °C 11.4 °C 1019.9 hPa Calm     92 % 0 mm WeatherDisplay:10.37 W/m2 OVC
20:59 12.7 °C 11.4 °C 1019.9 hPa Calm     92 % 0 mm WeatherDisplay:10.37 W/m2 OVC
21:04 12.6 °C 11.3 °C 1019.9 hPa Calm     92 % 0 mm WeatherDisplay:10.37 W/m2 OVC
21:09 12.5 °C 11.4 °C 1019.9 hPa Calm     93 % 0 mm WeatherDisplay:10.37 W/m2 OVC
21:14 12.5 °C 11.4 °C 1019.9 hPa Calm     93 % 0 mm WeatherDisplay:10.37 W/m2 BKN
21:24 12.4 °C 11.3 °C 1019.5 hPa Calm     93 % 0 mm WeatherDisplay:10.37 W/m2 BKN
21:29 12.4 °C 11.3 °C 1019.5 hPa Calm     93 % 0 mm WeatherDisplay:10.37 W/m2 BKN
21:34 12.4 °C 11.5 °C 1019.5 hPa Calm     94 % 0 mm WeatherDisplay:10.37 W/m2 BKN
21:39 12.4 °C 11.4 °C 1019.5 hPa Calm     94 % 0 mm WeatherDisplay:10.37 W/m2 BKN
21:44 12.4 °C 11.4 °C 1019.5 hPa Calm     94 % 0 mm WeatherDisplay:10.37 W/m2 BKN
21:49 12.4 °C 11.4 °C 1019.9 hPa Calm     94 % 0 mm WeatherDisplay:10.37 W/m2 BKN
21:59 12.3 °C 11.4 °C 1019.5 hPa Calm     94 % 0 mm WeatherDisplay:10.37 W/m2 BKN
22:04 12.3 °C 11.4 °C 1019.5 hPa Calm     94 % 0 mm WeatherDisplay:10.37 W/m2 BKN
22:09 12.3 °C 11.3 °C 1019.5 hPa Calm     94 % 0 mm WeatherDisplay:10.37 W/m2 BKN
22:14 12.3 °C 11.3 °C 1019.2 hPa Calm     94 % 0 mm WeatherDisplay:10.37 W/m2 BKN
22:19 12.2 °C 11.3 °C 1019.2 hPa Calm     94 % 0 mm WeatherDisplay:10.37 W/m2 BKN
22:24 12.2 °C 11.3 °C 1019.5 hPa Calm     94 % 0 mm WeatherDisplay:10.37 W/m2 BKN
22:29 12.2 °C 11.3 °C 1019.5 hPa Calm     94 % 0 mm WeatherDisplay:10.37 W/m2 BKN
22:34 12.2 °C 11.3 °C 1019.5 hPa Calm     94 % 0 mm WeatherDisplay:10.37 W/m2 BKN
22:39 12.2 °C 11.4 °C 1019.5 hPa Calm     95 % 0 mm WeatherDisplay:10.37 W/m2 BKN
22:44 12.2 °C 11.4 °C 1019.5 hPa Calm     95 % 0 mm WeatherDisplay:10.37 W/m2 BKN
22:49 12.2 °C 11.4 °C 1019.5 hPa Calm     95 % 0 mm WeatherDisplay:10.37 W/m2 BKN
22:54 12.1 °C 11.3 °C 1019.5 hPa Calm     95 % 0 mm WeatherDisplay:10.37 W/m2 BKN
22:59 12.1 °C 11.3 °C 1019.9 hPa Calm     95 % 0 mm WeatherDisplay:10.37 W/m2 BKN
23:09 12.1 °C 11.3 °C 1019.9 hPa Calm     95 % 0 mm WeatherDisplay:10.37 W/m2 BKN
23:14 12.1 °C 11.3 °C 1019.9 hPa Calm     95 % 0 mm WeatherDisplay:10.37 W/m2 OVC
23:19 12.1 °C 11.3 °C 1019.9 hPa Calm     95 % 0 mm WeatherDisplay:10.37 W/m2 OVC
23:24 12.1 °C 11.3 °C 1019.5 hPa Calm     95 % 0 mm WeatherDisplay:10.37 W/m2 OVC
23:29 12.1 °C 11.3 °C 1019.9 hPa Calm     95 % 0 mm WeatherDisplay:10.37 W/m2 OVC
23:34 12.1 °C 11.3 °C 1019.5 hPa Calm     95 % 0 mm WeatherDisplay:10.37 W/m2 OVC
23:39 12.1 °C 11.3 °C 1019.2 hPa Calm     95 % 0 mm WeatherDisplay:10.37 W/m2 OVC
23:44 12.1 °C 11.3 °C 1019.2 hPa Calm     95 % 0 mm WeatherDisplay:10.37 W/m2 BKN
23:49 12.1 °C 11.3 °C 1019.2 hPa Calm     95 % 0 mm WeatherDisplay:10.37 W/m2 BKN
23:54 12.1 °C 11.3 °C 1018.8 hPa Calm     95 % 0 mm WeatherDisplay:10.37 W/m2 BKN
23:59 12.1 °C 11.3 °C 1018.8 hPa Calm     95 % 0 mm WeatherDisplay:10.37 W/m2 RA
Juneau County Weather
Compliments of Weather Underground - 2.75 mb